sensor_id;sensor_type;location;lat;lon;timestamp;pressure;altitude;pressure_sealevel;temperature;humidity
42411;BME280;28056;51.112;0.984;2024-03-17T00:00:33;101068.69;;;12.10;100.00
42411;BME280;28056;51.112;0.984;2024-03-17T00:03:01;101068.26;;;12.28;100.00
42411;BME280;28056;51.112;0.984;2024-03-17T00:05:28;101064.27;;;12.45;100.00
42411;BME280;28056;51.112;0.984;2024-03-17T00:07:56;101067.03;;;12.24;100.00
42411;BME280;28056;51.112;0.984;2024-03-17T00:10:23;101067.12;;;12.31;100.00
42411;BME280;28056;51.112;0.984;2024-03-17T00:12:51;101065.09;;;12.17;100.00
42411;BME280;28056;51.112;0.984;2024-03-17T00:15:19;101060.80;;;12.47;100.00
42411;BME280;28056;51.112;0.984;2024-03-17T00:17:46;101059.80;;;12.13;100.00
42411;BME280;28056;51.112;0.984;2024-03-17T00:20:13;101055.05;;;11.64;100.00
42411;BME280;28056;51.112;0.984;2024-03-17T00:22:41;101050.62;;;12.05;100.00
42411;BME280;28056;51.112;0.984;2024-03-17T00:25:09;101052.72;;;12.37;100.00
42411;BME280;28056;51.112;0.984;2024-03-17T00:27:41;101044.94;;;11.82;100.00
42411;BME280;28056;51.112;0.984;2024-03-17T00:30:10;101049.21;;;12.38;100.00
42411;BME280;28056;51.112;0.984;2024-03-17T00:32:38;101037.25;;;12.38;100.00
42411;BME280;28056;51.112;0.984;2024-03-17T00:35:06;101038.26;;;12.28;100.00
42411;BME280;28056;51.112;0.984;2024-03-17T00:37:34;101030.76;;;12.44;100.00
42411;BME280;28056;51.112;0.984;2024-03-17T00:40:02;101025.58;;;12.52;100.00
42411;BME280;28056;51.112;0.984;2024-03-17T00:42:29;101022.21;;;12.72;100.00
42411;BME280;28056;51.112;0.984;2024-03-17T00:44:57;101015.58;;;12.67;100.00
42411;BME280;28056;51.112;0.984;2024-03-17T00:47:25;101011.37;;;12.83;100.00
42411;BME280;28056;51.112;0.984;2024-03-17T00:49:52;101009.35;;;12.91;100.00
42411;BME280;28056;51.112;0.984;2024-03-17T00:52:19;101004.90;;;13.12;100.00
42411;BME280;28056;51.112;0.984;2024-03-17T00:54:47;101006.48;;;12.83;100.00
42411;BME280;28056;51.112;0.984;2024-03-17T00:57:14;100999.74;;;12.70;100.00
42411;BME280;28056;51.112;0.984;2024-03-17T00:59:42;100998.34;;;13.11;100.00
42411;BME280;28056;51.112;0.984;2024-03-17T01:04:47;100989.61;;;12.98;100.00
42411;BME280;28056;51.112;0.984;2024-03-17T01:07:15;100987.37;;;12.92;100.00
42411;BME280;28056;51.112;0.984;2024-03-17T01:09:42;100985.38;;;12.89;100.00
42411;BME280;28056;51.112;0.984;2024-03-17T01:12:10;100982.66;;;13.02;100.00
42411;BME280;28056;51.112;0.984;2024-03-17T01:14:37;100977.50;;;13.08;100.00
42411;BME280;28056;51.112;0.984;2024-03-17T01:17:05;100972.10;;;12.71;100.00
42411;BME280;28056;51.112;0.984;2024-03-17T01:19:33;100970.93;;;12.58;100.00
42411;BME280;28056;51.112;0.984;2024-03-17T01:22:01;100968.15;;;12.78;100.00
42411;BME280;28056;51.112;0.984;2024-03-17T01:24:29;100965.82;;;12.60;100.00
42411;BME280;28056;51.112;0.984;2024-03-17T01:26:57;100962.28;;;12.53;100.00
42411;BME280;28056;51.112;0.984;2024-03-17T01:29:24;100958.90;;;12.59;100.00
42411;BME280;28056;51.112;0.984;2024-03-17T01:31:52;100954.88;;;12.41;100.00
42411;BME280;28056;51.112;0.984;2024-03-17T01:34:20;100949.25;;;12.73;100.00
42411;BME280;28056;51.112;0.984;2024-03-17T01:36:48;100944.36;;;12.23;100.00
42411;BME280;28056;51.112;0.984;2024-03-17T01:39:15;100944.25;;;12.53;100.00
42411;BME280;28056;51.112;0.984;2024-03-17T01:41:43;100947.17;;;12.60;100.00
42411;BME280;28056;51.112;0.984;2024-03-17T01:44:22;100948.75;;;12.66;100.00
42411;BME280;28056;51.112;0.984;2024-03-17T01:46:50;100947.26;;;12.74;100.00
42411;BME280;28056;51.112;0.984;2024-03-17T01:49:18;100941.71;;;12.83;100.00
42411;BME280;28056;51.112;0.984;2024-03-17T01:51:47;100939.82;;;12.87;100.00
42411;BME280;28056;51.112;0.984;2024-03-17T01:54:15;100935.96;;;12.90;100.00
42411;BME280;28056;51.112;0.984;2024-03-17T01:56:43;100934.51;;;12.73;100.00
42411;BME280;28056;51.112;0.984;2024-03-17T01:59:11;100930.48;;;12.92;100.00
42411;BME280;28056;51.112;0.984;2024-03-17T02:01:38;100927.96;;;12.97;100.00
42411;BME280;28056;51.112;0.984;2024-03-17T02:04:06;100925.41;;;12.87;100.00
42411;BME280;28056;51.112;0.984;2024-03-17T02:06:34;100921.01;;;13.08;100.00
42411;BME280;28056;51.112;0.984;2024-03-17T02:09:01;100918.05;;;12.58;100.00
42411;BME280;28056;51.112;0.984;2024-03-17T02:11:30;100910.57;;;12.73;100.00
42411;BME280;28056;51.112;0.984;2024-03-17T02:13:58;100899.86;;;12.62;100.00
42411;BME280;28056;51.112;0.984;2024-03-17T02:16:26;100890.86;;;13.11;100.00
42411;BME280;28056;51.112;0.984;2024-03-17T02:18:55;100892.64;;;12.76;100.00
42411;BME280;28056;51.112;0.984;2024-03-17T02:21:23;100889.71;;;13.16;100.00
42411;BME280;28056;51.112;0.984;2024-03-17T02:23:50;100885.08;;;13.47;100.00
42411;BME280;28056;51.112;0.984;2024-03-17T02:26:18;100885.36;;;13.24;100.00
42411;BME280;28056;51.112;0.984;2024-03-17T02:28:46;100885.47;;;13.38;100.00
42411;BME280;28056;51.112;0.984;2024-03-17T02:31:15;100886.17;;;13.41;100.00
42411;BME280;28056;51.112;0.984;2024-03-17T02:33:44;100883.38;;;13.52;100.00
42411;BME280;28056;51.112;0.984;2024-03-17T02:36:12;100885.86;;;13.46;100.00
42411;BME280;28056;51.112;0.984;2024-03-17T02:38:40;100883.69;;;13.56;100.00
42411;BME280;28056;51.112;0.984;2024-03-17T02:41:07;100874.10;;;13.71;100.00
42411;BME280;28056;51.112;0.984;2024-03-17T02:43:35;100874.18;;;13.78;100.00
42411;BME280;28056;51.112;0.984;2024-03-17T02:46:02;100879.46;;;13.62;100.00
42411;BME280;28056;51.112;0.984;2024-03-17T02:48:29;100875.52;;;13.70;100.00
42411;BME280;28056;51.112;0.984;2024-03-17T02:50:57;100867.81;;;13.56;100.00
42411;BME280;28056;51.112;0.984;2024-03-17T02:53:24;100868.28;;;13.69;100.00
42411;BME280;28056;51.112;0.984;2024-03-17T02:55:51;100870.30;;;13.83;100.00
42411;BME280;28056;51.112;0.984;2024-03-17T02:58:19;100866.17;;;13.07;100.00
42411;BME280;28056;51.112;0.984;2024-03-17T03:00:46;100870.74;;;12.92;100.00
42411;BME280;28056;51.112;0.984;2024-03-17T03:03:14;100866.73;;;12.81;100.00
42411;BME280;28056;51.112;0.984;2024-03-17T03:05:42;100861.12;;;12.75;100.00
42411;BME280;28056;51.112;0.984;2024-03-17T03:08:09;100858.35;;;12.90;100.00
42411;BME280;28056;51.112;0.984;2024-03-17T03:10:36;100859.18;;;13.27;100.00
42411;BME280;28056;51.112;0.984;2024-03-17T03:13:03;100865.25;;;13.21;100.00
42411;BME280;28056;51.112;0.984;2024-03-17T03:15:31;100867.11;;;13.14;100.00
42411;BME280;28056;51.112;0.984;2024-03-17T03:17:59;100863.66;;;13.44;100.00
42411;BME280;28056;51.112;0.984;2024-03-17T03:20:26;100859.90;;;13.18;100.00
42411;BME280;28056;51.112;0.984;2024-03-17T03:22:54;100862.11;;;12.89;100.00
42411;BME280;28056;51.112;0.984;2024-03-17T03:25:21;100864.98;;;13.41;100.00
42411;BME280;28056;51.112;0.984;2024-03-17T03:27:49;100856.39;;;13.11;100.00
42411;BME280;28056;51.112;0.984;2024-03-17T03:30:16;100855.71;;;13.13;100.00
42411;BME280;28056;51.112;0.984;2024-03-17T03:32:44;100856.19;;;13.49;100.00
42411;BME280;28056;51.112;0.984;2024-03-17T03:35:11;100858.75;;;12.75;100.00
42411;BME280;28056;51.112;0.984;2024-03-17T03:37:38;100857.87;;;13.07;100.00
42411;BME280;28056;51.112;0.984;2024-03-17T03:40:07;100856.75;;;13.13;100.00
42411;BME280;28056;51.112;0.984;2024-03-17T03:42:34;100853.76;;;13.26;100.00
42411;BME280;28056;51.112;0.984;2024-03-17T03:45:02;100850.71;;;13.19;100.00
42411;BME280;28056;51.112;0.984;2024-03-17T03:47:34;100845.90;;;13.07;100.00
42411;BME280;28056;51.112;0.984;2024-03-17T03:50:01;100839.30;;;12.98;100.00
42411;BME280;28056;51.112;0.984;2024-03-17T03:52:29;100836.02;;;12.79;100.00
42411;BME280;28056;51.112;0.984;2024-03-17T03:55:02;100832.36;;;12.86;100.00
42411;BME280;28056;51.112;0.984;2024-03-17T03:57:29;100829.96;;;12.54;100.00
42411;BME280;28056;51.112;0.984;2024-03-17T03:59:56;100823.63;;;12.85;100.00
42411;BME280;28056;51.112;0.984;2024-03-17T04:02:23;100821.64;;;13.00;100.00
42411;BME280;28056;51.112;0.984;2024-03-17T04:04:51;100819.33;;;12.94;100.00
42411;BME280;28056;51.112;0.984;2024-03-17T04:07:18;100817.21;;;12.59;100.00
42411;BME280;28056;51.112;0.984;2024-03-17T04:09:46;100819.81;;;12.60;100.00
42411;BME280;28056;51.112;0.984;2024-03-17T04:12:13;100817.31;;;12.35;100.00
42411;BME280;28056;51.112;0.984;2024-03-17T04:14:40;100812.07;;;12.81;100.00
42411;BME280;28056;51.112;0.984;2024-03-17T04:17:08;100812.86;;;12.92;100.00
42411;BME280;28056;51.112;0.984;2024-03-17T04:19:35;100808.21;;;12.98;100.00
42411;BME280;28056;51.112;0.984;2024-03-17T04:22:03;100807.89;;;12.63;100.00
42411;BME280;28056;51.112;0.984;2024-03-17T04:24:30;100809.47;;;13.03;100.00
42411;BME280;28056;51.112;0.984;2024-03-17T04:26:58;100810.63;;;12.80;100.00
42411;BME280;28056;51.112;0.984;2024-03-17T04:29:26;100807.53;;;12.94;100.00
42411;BME280;28056;51.112;0.984;2024-03-17T04:31:54;100804.29;;;12.35;100.00
42411;BME280;28056;51.112;0.984;2024-03-17T04:34:21;100799.86;;;12.24;100.00
42411;BME280;28056;51.112;0.984;2024-03-17T04:36:48;100796.80;;;12.46;100.00
42411;BME280;28056;51.112;0.984;2024-03-17T04:39:15;100795.56;;;12.87;100.00
42411;BME280;28056;51.112;0.984;2024-03-17T04:41:43;100790.45;;;12.09;100.00
42411;BME280;28056;51.112;0.984;2024-03-17T04:44:10;100790.74;;;12.85;100.00
42411;BME280;28056;51.112;0.984;2024-03-17T04:46:38;100786.50;;;12.53;100.00
42411;BME280;28056;51.112;0.984;2024-03-17T04:49:06;100786.19;;;12.52;100.00
42411;BME280;28056;51.112;0.984;2024-03-17T04:51:34;100782.98;;;12.89;100.00
42411;BME280;28056;51.112;0.984;2024-03-17T04:54:01;100781.43;;;12.60;100.00
42411;BME280;28056;51.112;0.984;2024-03-17T04:56:29;100783.23;;;13.01;100.00
42411;BME280;28056;51.112;0.984;2024-03-17T04:58:56;100781.83;;;13.31;100.00
42411;BME280;28056;51.112;0.984;2024-03-17T05:01:23;100779.82;;;12.85;100.00
42411;BME280;28056;51.112;0.984;2024-03-17T05:03:51;100779.07;;;12.74;100.00
42411;BME280;28056;51.112;0.984;2024-03-17T05:06:18;100775.42;;;13.38;100.00
42411;BME280;28056;51.112;0.984;2024-03-17T05:08:46;100776.46;;;12.77;100.00
42411;BME280;28056;51.112;0.984;2024-03-17T05:11:14;100776.79;;;13.65;100.00
42411;BME280;28056;51.112;0.984;2024-03-17T05:13:42;100769.37;;;12.78;100.00
42411;BME280;28056;51.112;0.984;2024-03-17T05:16:10;100767.63;;;12.72;100.00
42411;BME280;28056;51.112;0.984;2024-03-17T05:18:37;100767.20;;;12.88;100.00
42411;BME280;28056;51.112;0.984;2024-03-17T05:21:06;100765.36;;;13.01;100.00
42411;BME280;28056;51.112;0.984;2024-03-17T05:23:35;100764.39;;;13.27;100.00
42411;BME280;28056;51.112;0.984;2024-03-17T05:26:04;100759.84;;;13.22;100.00
42411;BME280;28056;51.112;0.984;2024-03-17T05:28:32;100754.48;;;13.17;100.00
42411;BME280;28056;51.112;0.984;2024-03-17T05:30:59;100757.88;;;13.44;100.00
42411;BME280;28056;51.112;0.984;2024-03-17T05:33:27;100764.02;;;13.59;100.00
42411;BME280;28056;51.112;0.984;2024-03-17T05:35:56;100763.03;;;13.22;100.00
42411;BME280;28056;51.112;0.984;2024-03-17T05:38:26;100759.69;;;13.32;100.00
42411;BME280;28056;51.112;0.984;2024-03-17T05:40:54;100761.65;;;13.26;100.00
42411;BME280;28056;51.112;0.984;2024-03-17T05:43:22;100764.89;;;13.33;100.00
42411;BME280;28056;51.112;0.984;2024-03-17T05:45:49;100765.83;;;13.52;100.00
42411;BME280;28056;51.112;0.984;2024-03-17T05:48:16;100766.81;;;13.41;100.00
42411;BME280;28056;51.112;0.984;2024-03-17T05:50:43;100772.81;;;13.76;100.00
42411;BME280;28056;51.112;0.984;2024-03-17T05:53:11;100772.54;;;13.61;100.00
42411;BME280;28056;51.112;0.984;2024-03-17T05:55:39;100770.91;;;13.49;100.00
42411;BME280;28056;51.112;0.984;2024-03-17T05:58:07;100768.61;;;13.47;100.00
42411;BME280;28056;51.112;0.984;2024-03-17T06:00:35;100774.43;;;13.16;100.00
42411;BME280;28056;51.112;0.984;2024-03-17T06:03:02;100778.51;;;13.49;100.00
42411;BME280;28056;51.112;0.984;2024-03-17T06:05:32;100772.88;;;13.52;100.00
42411;BME280;28056;51.112;0.984;2024-03-17T06:07:59;100770.33;;;13.61;100.00
42411;BME280;28056;51.112;0.984;2024-03-17T06:10:26;100769.93;;;12.05;100.00
42411;BME280;28056;51.112;0.984;2024-03-17T06:12:54;100766.90;;;12.22;100.00
42411;BME280;28056;51.112;0.984;2024-03-17T06:15:21;100769.50;;;12.36;100.00
42411;BME280;28056;51.112;0.984;2024-03-17T06:17:49;100769.38;;;11.78;100.00
42411;BME280;28056;51.112;0.984;2024-03-17T06:20:17;100770.78;;;11.88;100.00
42411;BME280;28056;51.112;0.984;2024-03-17T06:22:45;100774.68;;;11.47;100.00
42411;BME280;28056;51.112;0.984;2024-03-17T06:25:11;100772.06;;;11.21;100.00
42411;BME280;28056;51.112;0.984;2024-03-17T06:27:38;100775.81;;;10.91;100.00
42411;BME280;28056;51.112;0.984;2024-03-17T06:30:06;100778.88;;;11.68;100.00
42411;BME280;28056;51.112;0.984;2024-03-17T06:32:37;100782.02;;;10.66;100.00
42411;BME280;28056;51.112;0.984;2024-03-17T06:35:05;100780.75;;;11.06;100.00
42411;BME280;28056;51.112;0.984;2024-03-17T06:37:32;100777.41;;;10.70;100.00
42411;BME280;28056;51.112;0.984;2024-03-17T06:39:59;100780.90;;;10.93;100.00
42411;BME280;28056;51.112;0.984;2024-03-17T06:42:26;100784.72;;;11.13;100.00
42411;BME280;28056;51.112;0.984;2024-03-17T06:44:53;100784.54;;;11.77;100.00
42411;BME280;28056;51.112;0.984;2024-03-17T06:47:20;100782.96;;;11.49;100.00
42411;BME280;28056;51.112;0.984;2024-03-17T06:49:47;100780.36;;;11.52;100.00
42411;BME280;28056;51.112;0.984;2024-03-17T06:52:14;100780.94;;;11.33;100.00
42411;BME280;28056;51.112;0.984;2024-03-17T06:54:41;100776.25;;;11.09;100.00
42411;BME280;28056;51.112;0.984;2024-03-17T06:57:09;100781.25;;;11.16;100.00
42411;BME280;28056;51.112;0.984;2024-03-17T06:59:37;100781.85;;;11.37;100.00
42411;BME280;28056;51.112;0.984;2024-03-17T07:02:04;100778.42;;;11.22;100.00
42411;BME280;28056;51.112;0.984;2024-03-17T07:04:37;100779.93;;;10.51;100.00
42411;BME280;28056;51.112;0.984;2024-03-17T07:07:04;100788.00;;;10.34;100.00
42411;BME280;28056;51.112;0.984;2024-03-17T07:09:31;100788.92;;;10.52;100.00
42411;BME280;28056;51.112;0.984;2024-03-17T07:11:59;100785.22;;;10.04;100.00
42411;BME280;28056;51.112;0.984;2024-03-17T07:14:26;100782.31;;;9.70;100.00
42411;BME280;28056;51.112;0.984;2024-03-17T07:16:54;100774.95;;;9.82;100.00
42411;BME280;28056;51.112;0.984;2024-03-17T07:19:21;100775.66;;;10.32;100.00
42411;BME280;28056;51.112;0.984;2024-03-17T07:21:48;100778.85;;;10.28;100.00
42411;BME280;28056;51.112;0.984;2024-03-17T07:24:15;100777.18;;;10.33;100.00
42411;BME280;28056;51.112;0.984;2024-03-17T07:26:42;100773.64;;;9.25;100.00
42411;BME280;28056;51.112;0.984;2024-03-17T07:29:10;100773.28;;;9.87;100.00
42411;BME280;28056;51.112;0.984;2024-03-17T07:31:37;100773.97;;;9.79;100.00
42411;BME280;28056;51.112;0.984;2024-03-17T07:34:09;100774.65;;;10.48;100.00
42411;BME280;28056;51.112;0.984;2024-03-17T07:36:37;100769.86;;;9.61;100.00
42411;BME280;28056;51.112;0.984;2024-03-17T07:39:05;100770.89;;;10.43;100.00
42411;BME280;28056;51.112;0.984;2024-03-17T07:41:33;100767.38;;;10.05;100.00
42411;BME280;28056;51.112;0.984;2024-03-17T07:44:00;100767.37;;;10.89;100.00
42411;BME280;28056;51.112;0.984;2024-03-17T07:46:28;100766.18;;;10.16;100.00
42411;BME280;28056;51.112;0.984;2024-03-17T07:48:55;100764.33;;;10.82;100.00
42411;BME280;28056;51.112;0.984;2024-03-17T07:51:22;100760.35;;;10.92;100.00
42411;BME280;28056;51.112;0.984;2024-03-17T07:53:50;100760.99;;;10.95;100.00
42411;BME280;28056;51.112;0.984;2024-03-17T07:56:18;100758.03;;;10.84;100.00
42411;BME280;28056;51.112;0.984;2024-03-17T07:58:46;100761.59;;;10.43;100.00
42411;BME280;28056;51.112;0.984;2024-03-17T08:01:15;100755.40;;;11.15;100.00
42411;BME280;28056;51.112;0.984;2024-03-17T08:03:45;100751.73;;;10.18;100.00
42411;BME280;28056;51.112;0.984;2024-03-17T08:06:13;100751.46;;;10.71;100.00
42411;BME280;28056;51.112;0.984;2024-03-17T08:08:40;100745.27;;;11.18;100.00
42411;BME280;28056;51.112;0.984;2024-03-17T08:11:07;100738.39;;;11.31;100.00
42411;BME280;28056;51.112;0.984;2024-03-17T08:13:35;100736.50;;;11.42;100.00
42411;BME280;28056;51.112;0.984;2024-03-17T08:16:03;100739.43;;;11.22;100.00
42411;BME280;28056;51.112;0.984;2024-03-17T08:18:32;100743.95;;;11.12;100.00
42411;BME280;28056;51.112;0.984;2024-03-17T08:21:01;100744.54;;;10.57;100.00
42411;BME280;28056;51.112;0.984;2024-03-17T08:23:29;100744.57;;;10.34;100.00
42411;BME280;28056;51.112;0.984;2024-03-17T08:25:58;100744.46;;;10.88;100.00
42411;BME280;28056;51.112;0.984;2024-03-17T08:28:26;100739.80;;;10.46;100.00
42411;BME280;28056;51.112;0.984;2024-03-17T08:30:54;100739.04;;;10.62;100.00
42411;BME280;28056;51.112;0.984;2024-03-17T08:33:22;100735.22;;;10.19;100.00
42411;BME280;28056;51.112;0.984;2024-03-17T08:35:55;100733.75;;;10.53;100.00
42411;BME280;28056;51.112;0.984;2024-03-17T08:38:23;100731.33;;;11.22;100.00
42411;BME280;28056;51.112;0.984;2024-03-17T08:40:51;100734.87;;;10.61;100.00
42411;BME280;28056;51.112;0.984;2024-03-17T08:43:19;100734.06;;;10.90;100.00
42411;BME280;28056;51.112;0.984;2024-03-17T08:45:54;100731.64;;;10.52;100.00
42411;BME280;28056;51.112;0.984;2024-03-17T08:48:22;100732.98;;;10.26;100.00
42411;BME280;28056;51.112;0.984;2024-03-17T08:50:50;100729.24;;;10.40;100.00
42411;BME280;28056;51.112;0.984;2024-03-17T08:53:18;100730.13;;;10.80;100.00
42411;BME280;28056;51.112;0.984;2024-03-17T08:55:45;100730.24;;;10.38;100.00
42411;BME280;28056;51.112;0.984;2024-03-17T08:58:12;100728.25;;;10.59;100.00
42411;BME280;28056;51.112;0.984;2024-03-17T09:00:40;100724.89;;;10.67;100.00
42411;BME280;28056;51.112;0.984;2024-03-17T09:03:08;100721.62;;;10.20;100.00
42411;BME280;28056;51.112;0.984;2024-03-17T09:05:36;100724.15;;;10.95;100.00
42411;BME280;28056;51.112;0.984;2024-03-17T09:08:04;100723.29;;;10.15;100.00
42411;BME280;28056;51.112;0.984;2024-03-17T09:10:32;100724.92;;;10.58;100.00
42411;BME280;28056;51.112;0.984;2024-03-17T09:12:59;100719.73;;;10.73;100.00
42411;BME280;28056;51.112;0.984;2024-03-17T09:15:27;100721.53;;;10.23;100.00
42411;BME280;28056;51.112;0.984;2024-03-17T09:17:54;100721.32;;;10.40;100.00
42411;BME280;28056;51.112;0.984;2024-03-17T09:20:22;100720.37;;;10.60;100.00
42411;BME280;28056;51.112;0.984;2024-03-17T09:22:49;100719.28;;;10.55;100.00
42411;BME280;28056;51.112;0.984;2024-03-17T09:25:16;100712.18;;;9.89;100.00
42411;BME280;28056;51.112;0.984;2024-03-17T09:27:44;100717.82;;;10.08;100.00
42411;BME280;28056;51.112;0.984;2024-03-17T09:30:12;100713.35;;;10.25;100.00
42411;BME280;28056;51.112;0.984;2024-03-17T09:32:40;100710.02;;;9.52;100.00
42411;BME280;28056;51.112;0.984;2024-03-17T09:35:07;100710.89;;;9.77;100.00
42411;BME280;28056;51.112;0.984;2024-03-17T09:37:35;100710.74;;;9.39;100.00
42411;BME280;28056;51.112;0.984;2024-03-17T09:40:04;100707.39;;;9.32;100.00
42411;BME280;28056;51.112;0.984;2024-03-17T09:42:31;100699.71;;;9.70;100.00
42411;BME280;28056;51.112;0.984;2024-03-17T09:44:59;100699.69;;;10.05;100.00
42411;BME280;28056;51.112;0.984;2024-03-17T09:47:26;100701.92;;;9.74;100.00
42411;BME280;28056;51.112;0.984;2024-03-17T09:49:54;100704.22;;;10.08;100.00
42411;BME280;28056;51.112;0.984;2024-03-17T09:52:23;100697.15;;;9.63;100.00
42411;BME280;28056;51.112;0.984;2024-03-17T09:54:55;100699.40;;;9.81;100.00
42411;BME280;28056;51.112;0.984;2024-03-17T09:57:25;100693.12;;;9.80;100.00
42411;BME280;28056;51.112;0.984;2024-03-17T09:59:52;100692.25;;;9.45;100.00
42411;BME280;28056;51.112;0.984;2024-03-17T10:02:20;100691.10;;;9.62;100.00
42411;BME280;28056;51.112;0.984;2024-03-17T10:04:48;100691.62;;;9.88;100.00
42411;BME280;28056;51.112;0.984;2024-03-17T10:07:15;100689.56;;;9.60;100.00
42411;BME280;28056;51.112;0.984;2024-03-17T10:09:43;100687.30;;;9.63;100.00
42411;BME280;28056;51.112;0.984;2024-03-17T10:12:29;100683.61;;;10.05;100.00
42411;BME280;28056;51.112;0.984;2024-03-17T10:15:00;100683.39;;;10.26;100.00
42411;BME280;28056;51.112;0.984;2024-03-17T10:17:31;100681.72;;;9.73;100.00
42411;BME280;28056;51.112;0.984;2024-03-17T10:20:15;100683.40;;;9.52;100.00
42411;BME280;28056;51.112;0.984;2024-03-17T10:23:02;100681.19;;;9.75;100.00
42411;BME280;28056;51.112;0.984;2024-03-17T10:25:31;100677.83;;;10.04;100.00
42411;BME280;28056;51.112;0.984;2024-03-17T10:28:01;100677.19;;;9.99;100.00
42411;BME280;28056;51.112;0.984;2024-03-17T10:30:29;100678.68;;;10.10;100.00
42411;BME280;28056;51.112;0.984;2024-03-17T10:32:58;100679.36;;;9.83;100.00
42411;BME280;28056;51.112;0.984;2024-03-17T10:35:30;100677.48;;;9.93;100.00
42411;BME280;28056;51.112;0.984;2024-03-17T10:37:59;100675.35;;;9.68;100.00
42411;BME280;28056;51.112;0.984;2024-03-17T10:40:28;100668.38;;;9.70;100.00
42411;BME280;28056;51.112;0.984;2024-03-17T10:42:56;100660.80;;;9.87;100.00
42411;BME280;28056;51.112;0.984;2024-03-17T10:45:30;100657.68;;;10.05;100.00
42411;BME280;28056;51.112;0.984;2024-03-17T10:48:00;100661.61;;;9.49;100.00
42411;BME280;28056;51.112;0.984;2024-03-17T10:50:30;100659.46;;;10.08;100.00
42411;BME280;28056;51.112;0.984;2024-03-17T10:53:01;100659.21;;;9.68;100.00
42411;BME280;28056;51.112;0.984;2024-03-17T10:55:32;100658.30;;;9.65;100.00
42411;BME280;28056;51.112;0.984;2024-03-17T10:58:04;100654.60;;;9.94;100.00
42411;BME280;28056;51.112;0.984;2024-03-17T11:00:35;100649.82;;;9.81;100.00
42411;BME280;28056;51.112;0.984;2024-03-17T11:03:08;100647.14;;;8.88;100.00
42411;BME280;28056;51.112;0.984;2024-03-17T11:05:36;100639.23;;;9.29;100.00
42411;BME280;28056;51.112;0.984;2024-03-17T11:08:14;100636.81;;;9.74;100.00
42411;BME280;28056;51.112;0.984;2024-03-17T11:10:49;100635.02;;;9.59;100.00
42411;BME280;28056;51.112;0.984;2024-03-17T11:13:23;100624.64;;;9.47;100.00
42411;BME280;28056;51.112;0.984;2024-03-17T11:15:51;100622.45;;;10.07;100.00
42411;BME280;28056;51.112;0.984;2024-03-17T11:18:35;100618.08;;;9.73;100.00
42411;BME280;28056;51.112;0.984;2024-03-17T11:21:04;100620.64;;;10.10;100.00
42411;BME280;28056;51.112;0.984;2024-03-17T11:23:32;100624.40;;;9.72;100.00
42411;BME280;28056;51.112;0.984;2024-03-17T11:25:59;100617.64;;;10.05;100.00
42411;BME280;28056;51.112;0.984;2024-03-17T11:29:00;100618.60;;;9.54;100.00
42411;BME280;28056;51.112;0.984;2024-03-17T11:31:39;100611.45;;;9.50;100.00
42411;BME280;28056;51.112;0.984;2024-03-17T11:34:26;100613.24;;;9.47;100.00
42411;BME280;28056;51.112;0.984;2024-03-17T11:36:55;100612.74;;;9.52;100.00
42411;BME280;28056;51.112;0.984;2024-03-17T11:39:46;100607.79;;;9.80;100.00
42411;BME280;28056;51.112;0.984;2024-03-17T11:42:14;100601.14;;;9.36;100.00
42411;BME280;28056;51.112;0.984;2024-03-17T11:44:43;100596.63;;;9.71;100.00
42411;BME280;28056;51.112;0.984;2024-03-17T11:47:11;100595.76;;;8.89;100.00
42411;BME280;28056;51.112;0.984;2024-03-17T11:49:40;100591.24;;;9.41;100.00
42411;BME280;28056;51.112;0.984;2024-03-17T11:52:10;100592.66;;;9.28;100.00
42411;BME280;28056;51.112;0.984;2024-03-17T11:54:39;100592.50;;;8.98;100.00
42411;BME280;28056;51.112;0.984;2024-03-17T11:57:08;100584.53;;;9.51;100.00
42411;BME280;28056;51.112;0.984;2024-03-17T11:59:36;100584.84;;;9.13;100.00
42411;BME280;28056;51.112;0.984;2024-03-17T12:02:10;100588.49;;;9.47;100.00
42411;BME280;28056;51.112;0.984;2024-03-17T12:04:44;100586.54;;;9.02;100.00
42411;BME280;28056;51.112;0.984;2024-03-17T12:07:13;100584.48;;;9.82;100.00
42411;BME280;28056;51.112;0.984;2024-03-17T12:09:42;100579.80;;;9.34;100.00
42411;BME280;28056;51.112;0.984;2024-03-17T12:12:12;100576.00;;;9.07;100.00
42411;BME280;28056;51.112;0.984;2024-03-17T12:14:40;100577.63;;;9.27;100.00
42411;BME280;28056;51.112;0.984;2024-03-17T12:17:09;100578.60;;;9.37;100.00
42411;BME280;28056;51.112;0.984;2024-03-17T12:19:37;100579.03;;;9.42;100.00
42411;BME280;28056;51.112;0.984;2024-03-17T12:22:06;100580.35;;;9.32;100.00
42411;BME280;28056;51.112;0.984;2024-03-17T12:24:35;100582.15;;;9.52;100.00
42411;BME280;28056;51.112;0.984;2024-03-17T12:27:05;100577.99;;;9.53;100.00
42411;BME280;28056;51.112;0.984;2024-03-17T12:29:34;100575.39;;;10.13;100.00
42411;BME280;28056;51.112;0.984;2024-03-17T12:32:04;100573.48;;;10.32;100.00
42411;BME280;28056;51.112;0.984;2024-03-17T12:34:32;100572.44;;;10.11;100.00
42411;BME280;28056;51.112;0.984;2024-03-17T12:37:01;100568.13;;;9.50;100.00
42411;BME280;28056;51.112;0.984;2024-03-17T12:39:30;100564.64;;;9.10;100.00
42411;BME280;28056;51.112;0.984;2024-03-17T12:42:06;100567.74;;;9.61;100.00
42411;BME280;28056;51.112;0.984;2024-03-17T12:44:35;100565.24;;;9.59;100.00
42411;BME280;28056;51.112;0.984;2024-03-17T12:47:04;100554.92;;;9.68;100.00
42411;BME280;28056;51.112;0.984;2024-03-17T12:49:33;100556.21;;;10.38;100.00
42411;BME280;28056;51.112;0.984;2024-03-17T12:52:01;100557.07;;;10.36;100.00